Time;durP1;ratioP1;P1;durP2;ratioP2;P2;SDS_P1;SDS_P2;PMS_P1;PMS_P2;Temp;Humidity;BMP_temperature;BMP_pressure;BME280_temperature;BME280_humidity;BME280_pressure;Samples;Min_cycle;Max_cycle;Signal;HPM_P1;HPM_P2
2023/04/08 00:01:01;;;;;;;55.33;22.83;;;;;;;6.90;100.00;99791.94;5099242;28;20046;-60
2023/04/08 00:03:26;;;;;;;60.45;23.35;;;;;;;6.85;100.00;99797.88;5097209;28;20060;-60
2023/04/08 00:05:51;;;;;;;68.10;23.70;;;;;;;6.82;100.00;99794.81;5098156;28;20032;-60
2023/04/08 00:08:17;;;;;;;69.80;24.85;;;;;;;6.83;100.00;99794.59;5097280;28;20028;-60
2023/04/08 00:10:42;;;;;;;68.55;22.70;;;;;;;6.87;100.00;99800.34;5092224;28;20035;-60
2023/04/08 00:13:08;;;;;;;60.25;22.67;;;;;;;6.83;100.00;99796.44;5097198;28;20051;-59
2023/04/08 00:15:33;;;;;;;64.30;23.45;;;;;;;6.86;100.00;99801.34;5096204;28;20044;-59
2023/04/08 00:17:59;;;;;;;62.95;24.27;;;;;;;6.81;100.00;99806.47;5096988;28;20023;-60
2023/04/08 00:20:24;;;;;;;55.97;22.80;;;;;;;6.81;100.00;99809.13;5093208;28;20028;-59
2023/04/08 00:22:50;;;;;;;68.18;23.65;;;;;;;6.79;100.00;99797.84;5094538;28;20027;-59
2023/04/08 00:25:15;;;;;;;58.60;21.90;;;;;;;6.81;100.00;99801.13;5094733;28;20081;-59
2023/04/08 00:27:41;;;;;;;63.72;24.63;;;;;;;6.78;100.00;99799.69;5097977;28;20085;-60
2023/04/08 00:30:07;;;;;;;60.50;22.98;;;;;;;6.91;100.00;99801.56;5096418;28;20028;-60
2023/04/08 00:32:32;;;;;;;59.85;22.20;;;;;;;6.80;100.00;99799.50;5103811;28;20792;-59
2023/04/08 00:34:57;;;;;;;64.93;24.20;;;;;;;6.79;100.00;99808.50;5096564;28;20028;-60
2023/04/08 00:37:23;;;;;;;62.40;22.95;;;;;;;6.78;100.00;99798.88;5099378;28;20020;-59
2023/04/08 00:39:50;;;;;;;65.15;24.35;;;;;;;6.72;100.00;99805.03;5097014;28;20444;-59
2023/04/08 00:42:16;;;;;;;61.70;23.27;;;;;;;6.74;100.00;99809.16;5096014;28;20028;-60
2023/04/08 00:44:41;;;;;;;55.85;23.77;;;;;;;6.78;100.00;99806.88;5099703;28;20026;-60
2023/04/08 00:47:07;;;;;;;63.75;25.50;;;;;;;6.76;100.00;99808.94;5092532;28;20054;-59
2023/04/08 00:49:32;;;;;;;58.70;23.67;;;;;;;6.84;100.00;99801.56;5066514;28;20045;-59
2023/04/08 00:51:59;;;;;;;63.80;23.48;;;;;;;6.83;100.00;99799.09;5084286;28;20047;-59
2023/04/08 00:54:25;;;;;;;72.00;26.17;;;;;;;6.76;100.00;99814.25;5092152;28;20281;-60
2023/04/08 00:56:50;;;;;;;69.18;23.77;;;;;;;6.85;100.00;99805.06;5096825;28;20035;-59
2023/04/08 00:59:16;;;;;;;63.38;24.00;;;;;;;6.74;100.00;99805.63;5101676;28;20335;-59
2023/04/08 01:02:19;;;;;;;65.22;25.85;;;;;;;6.88;100.00;99804.63;5094275;28;20027;-59
2023/04/08 01:05:04;;;;;;;61.78;26.67;;;;;;;6.82;100.00;99800.13;5087791;28;20020;-59
2023/04/08 01:07:36;;;;;;;73.25;26.23;;;;;;;6.73;100.00;99814.66;5100004;28;20106;-59
2023/04/08 01:10:05;;;;;;;74.53;26.88;;;;;;;6.73;100.00;99809.34;5100168;28;20036;-59
2023/04/08 01:12:31;;;;;;;79.43;27.02;;;;;;;6.75;100.00;99807.28;5092701;27;20032;-59
2023/04/08 01:15:04;;;;;;;79.18;27.63;;;;;;;6.73;100.00;99812.00;5092650;28;20097;-59
2023/04/08 01:17:30;;;;;;;72.75;27.73;;;;;;;6.74;100.00;99806.47;5093640;28;20270;-59
2023/04/08 01:19:56;;;;;;;87.97;29.58;;;;;;;6.65;100.00;99808.50;5101440;28;20306;-59
2023/04/08 01:22:36;;;;;;;80.05;29.50;;;;;;;6.68;100.00;99808.09;5096139;28;20050;-59
2023/04/08 01:25:04;;;;;;;;;;;;;;;6.72;100.00;99811.19;5094302;28;20078;-60
2023/04/08 01:27:30;;;;;;;75.85;27.60;;;;;;;6.80;100.00;99810.16;5096320;28;20265;-59
2023/04/08 01:29:55;;;;;;;83.57;28.20;;;;;;;6.68;100.00;99821.41;5097766;28;20219;-59
2023/04/08 01:32:20;;;;;;;73.85;26.83;;;;;;;6.78;100.00;99813.03;5098679;28;20445;-59
2023/04/08 01:34:46;;;;;;;85.50;29.13;;;;;;;6.58;100.00;99814.84;5091858;28;20032;-59
2023/04/08 01:37:12;;;;;;;96.70;30.55;;;;;;;6.57;100.00;99815.88;5095587;28;20064;-60
2023/04/08 01:39:37;;;;;;;95.00;29.92;;;;;;;6.64;100.00;99812.19;5094717;28;20027;-60
2023/04/08 01:42:03;;;;;;;91.05;30.73;;;;;;;6.58;100.00;99820.16;5090574;28;20028;-60
2023/04/08 01:44:28;;;;;;;90.68;30.95;;;;;;;6.58;100.00;99815.66;5095385;28;20567;-59
2023/04/08 01:46:54;;;;;;;77.15;28.80;;;;;;;6.55;100.00;99817.91;5082840;28;20053;-60
2023/04/08 01:49:19;;;;;;;80.93;27.13;;;;;;;6.56;100.00;99812.38;5095658;28;20015;-59
2023/04/08 01:51:45;;;;;;;79.28;28.23;;;;;;;6.52;100.00;99819.16;5102232;28;20023;-59
2023/04/08 01:54:11;;;;;;;81.63;28.13;;;;;;;6.60;100.00;99818.94;5082216;28;20588;-59
2023/04/08 01:56:38;;;;;;;83.78;29.02;;;;;;;6.55;100.00;99821.41;5090647;28;20027;-59
2023/04/08 01:59:05;;;;;;;90.35;31.42;;;;;;;6.57;100.00;99822.03;5094564;28;20115;-60
2023/04/08 02:01:31;;;;;;;83.18;28.63;;;;;;;6.62;100.00;99818.75;5066514;28;20530;-61
2023/04/08 02:03:56;;;;;;;94.03;28.50;;;;;;;6.64;100.00;99814.88;5089792;28;20027;-59
2023/04/08 02:06:25;;;;;;;85.60;27.98;;;;;;;6.75;100.00;99817.94;5095624;28;20387;-59
2023/04/08 02:08:50;;;;;;;87.47;27.60;;;;;;;6.49;100.00;99816.88;5100297;28;20509;-60
2023/04/08 02:11:16;;;;;;;102.75;28.90;;;;;;;6.55;100.00;99813.41;5093199;28;20031;-59
2023/04/08 02:13:41;;;;;;;104.13;29.27;;;;;;;6.53;100.00;99812.78;5093253;28;20036;-59
2023/04/08 02:16:15;;;;;;;87.07;30.13;;;;;;;6.55;100.00;99813.41;5098887;28;20363;-60
2023/04/08 02:18:43;;;;;;;88.40;27.95;;;;;;;6.53;100.00;99822.63;5079299;28;20028;-60
2023/04/08 02:21:18;;;;;;;88.78;27.85;;;;;;;6.53;100.00;99814.63;5092659;28;20365;-59
2023/04/08 02:23:45;;;;;;;96.45;29.67;;;;;;;6.56;100.00;99820.38;5077630;28;20302;-60
2023/04/08 02:26:14;;;;;;;82.80;28.63;;;;;;;6.55;100.00;99826.72;5078527;28;20080;-60
2023/04/08 02:28:40;;;;;;;81.13;27.50;;;;;;;6.62;100.00;99814.25;5097445;28;20030;-59
2023/04/08 02:31:14;;;;;;;93.60;26.15;;;;;;;6.48;100.00;99817.91;5094873;28;20482;-60
2023/04/08 02:33:40;;;;;;;88.53;28.55;;;;;;;6.55;100.00;99818.72;5089173;28;20074;-60
2023/04/08 02:36:06;;;;;;;101.03;29.92;;;;;;;6.57;100.00;99822.03;5097000;28;20043;-59
2023/04/08 02:38:31;;;;;;;92.05;28.50;;;;;;;6.50;100.00;99826.50;5095024;28;20327;-60
2023/04/08 02:40:57;;;;;;;82.65;27.92;;;;;;;6.46;100.00;99820.78;5093757;28;20540;-63
2023/04/08 02:43:30;;;;;;;83.30;27.95;;;;;;;6.47;100.00;99825.06;5093538;28;20032;-60
2023/04/08 02:45:56;;;;;;;95.35;29.80;;;;;;;6.51;100.00;99828.13;5092587;28;20032;-59
2023/04/08 02:48:21;;;;;;;93.88;28.83;;;;;;;6.57;100.00;99823.88;5096790;28;20028;-59
2023/04/08 02:50:47;;;;;;;102.70;29.42;;;;;;;6.54;100.00;99832.25;5098565;28;20019;-59
2023/04/08 02:53:12;;;;;;;89.68;29.83;;;;;;;6.48;100.00;99824.03;5094561;28;20049;-59
2023/04/08 02:55:38;;;;;;;97.72;31.00;;;;;;;6.55;100.00;99825.91;5100235;28;20020;-60
2023/04/08 02:58:04;;;;;;;92.35;29.25;;;;;;;6.50;100.00;99829.16;5098736;28;20113;-60
2023/04/08 03:00:30;;;;;;;85.40;30.15;;;;;;;6.44;100.00;99833.47;5097145;28;20413;-62
2023/04/08 03:02:55;;;;;;;96.82;30.23;;;;;;;6.44;100.00;99832.63;5096226;28;20040;-59
2023/04/08 03:05:21;;;;;;;105.43;31.45;;;;;;;6.44;100.00;99837.94;5093308;28;20081;-59
2023/04/08 03:07:46;;;;;;;101.60;33.00;;;;;;;6.40;100.00;99834.06;5093223;28;20046;-59
2023/04/08 03:10:12;;;;;;;101.15;31.65;;;;;;;6.42;100.00;99830.19;5096791;28;20089;-59
2023/04/08 03:12:37;;;;;;;98.18;32.03;;;;;;;6.46;100.00;99830.59;5096533;27;20024;-59
2023/04/08 03:15:03;;;;;;;104.50;33.05;;;;;;;6.33;100.00;99828.69;5098614;28;20073;-59
2023/04/08 03:17:31;;;;;;;110.10;34.88;;;;;;;6.31;100.00;99833.41;5094360;28;20064;-59
2023/04/08 03:19:57;;;;;;;113.32;32.13;;;;;;;6.34;100.00;99838.34;5099378;28;20332;-63
2023/04/08 03:22:23;;;;;;;120.85;34.50;;;;;;;6.43;100.00;99825.66;5098036;28;20038;-59
2023/04/08 03:24:48;;;;;;;108.85;33.63;;;;;;;6.28;100.00;99827.66;5098694;28;20032;-60
2023/04/08 03:27:14;;;;;;;110.28;35.38;;;;;;;6.28;100.00;99827.66;5097722;28;20435;-60
2023/04/08 03:29:40;;;;;;;112.07;34.10;;;;;;;6.30;100.00;99825.63;5100040;28;20024;-59
2023/04/08 03:32:05;;;;;;;104.20;33.05;;;;;;;6.32;100.00;99832.41;5099724;28;20024;-59
2023/04/08 03:34:32;;;;;;;112.40;31.63;;;;;;;6.35;100.00;99834.66;5096030;27;20031;-60
2023/04/08 03:36:57;;;;;;;94.22;32.53;;;;;;;6.37;100.00;99842.44;5102607;28;20062;-60
2023/04/08 03:39:23;;;;;;;102.40;31.75;;;;;;;6.34;100.00;99842.81;5103085;28;20474;-60
2023/04/08 03:41:48;;;;;;;92.53;31.23;;;;;;;6.33;100.00;99830.56;5098499;28;20460;-60
2023/04/08 03:44:14;;;;;;;83.60;31.35;;;;;;;6.29;100.00;99839.94;5095665;28;20428;-59
2023/04/08 03:46:39;;;;;;;104.90;32.63;;;;;;;6.23;100.00;99834.41;5096671;28;20028;-60
2023/04/08 03:49:06;;;;;;;92.95;31.88;;;;;;;6.21;100.00;99833.78;5100379;28;20054;-60
2023/04/08 03:51:31;;;;;;;106.82;32.20;;;;;;;6.28;100.00;99838.31;5102046;28;20488;-60
2023/04/08 03:53:56;;;;;;;89.72;29.63;;;;;;;6.22;100.00;99838.09;5098009;28;20028;-59
2023/04/08 03:56:22;;;;;;;91.07;31.90;;;;;;;6.33;100.00;99835.88;5104410;28;20039;-59
2023/04/08 03:58:48;;;;;;;81.40;31.58;;;;;;;6.36;100.00;99838.13;5096753;28;20314;-59
2023/04/08 04:01:13;;;;;;;83.28;29.83;;;;;;;6.31;100.00;99837.91;5083314;28;20439;-59
2023/04/08 04:03:38;;;;;;;84.65;32.67;;;;;;;6.21;100.00;99836.44;5097035;28;20121;-59
2023/04/08 04:06:04;;;;;;;69.32;29.27;;;;;;;6.18;100.00;99834.19;5095681;28;20058;-60
2023/04/08 04:08:29;;;;;;;81.05;28.05;;;;;;;6.13;100.00;99835.81;5093848;28;20507;-59
2023/04/08 04:10:55;;;;;;;84.00;28.48;;;;;;;6.20;100.00;99836.66;5092412;28;20485;-60
2023/04/08 04:13:20;;;;;;;78.30;29.20;;;;;;;6.29;100.00;99835.47;5095426;28;20061;-59
2023/04/08 04:15:46;;;;;;;93.82;29.40;;;;;;;6.24;100.00;99838.72;5095471;28;20039;-60
2023/04/08 04:18:12;;;;;;;72.25;29.20;;;;;;;6.23;100.00;99837.06;5090828;28;20462;-60
2023/04/08 04:20:41;;;;;;;80.28;29.10;;;;;;;6.16;100.00;99846.03;5095849;28;20145;-60
2023/04/08 04:23:06;;;;;;;79.25;29.02;;;;;;;6.13;100.00;99844.59;5095361;28;20039;-59
2023/04/08 04:25:32;;;;;;;69.28;27.70;;;;;;;6.19;100.00;99853.63;5100155;28;20055;-59
2023/04/08 04:27:57;;;;;;;81.80;27.88;;;;;;;6.16;100.00;99851.38;5090296;28;20139;-59
2023/04/08 04:30:23;;;;;;;72.15;26.63;;;;;;;6.18;100.00;99850.16;5100977;28;20334;-59
2023/04/08 04:32:48;;;;;;;82.00;29.65;;;;;;;6.01;100.00;99851.50;5095620;28;20043;-59
2023/04/08 04:35:14;;;;;;;83.55;30.42;;;;;;;6.09;100.00;99851.34;5103551;28;20266;-59
2023/04/08 04:37:39;;;;;;;74.13;27.73;;;;;;;6.06;100.00;99851.72;5093287;28;20031;-59
2023/04/08 04:40:06;;;;;;;93.38;29.40;;;;;;;6.07;100.00;99857.91;5097534;28;20027;-59
2023/04/08 04:42:32;;;;;;;79.32;29.77;;;;;;;6.13;100.00;99867.75;5090880;28;20034;-59
2023/04/08 04:44:58;;;;;;;75.82;27.42;;;;;;;6.14;100.00;99859.56;5098116;28;20413;-60
2023/04/08 04:47:24;;;;;;;80.70;30.02;;;;;;;6.04;100.00;99859.94;5091131;28;20024;-60
2023/04/08 04:49:49;;;;;;;84.80;27.83;;;;;;;6.06;100.00;99859.72;5098288;28;20107;-59
2023/04/08 04:52:15;;;;;;;95.10;31.27;;;;;;;5.96;100.00;99851.28;5102205;28;20107;-59
2023/04/08 04:54:40;;;;;;;87.28;30.50;;;;;;;6.05;100.00;99860.75;5092973;28;20016;-59
2023/04/08 04:57:06;;;;;;;90.65;27.83;;;;;;;6.07;100.00;99869.34;5101075;28;20019;-59
2023/04/08 04:59:31;;;;;;;98.70;30.85;;;;;;;6.04;100.00;99859.94;5097234;28;20221;-59
2023/04/08 05:01:57;;;;;;;90.35;29.25;;;;;;;6.09;100.00;99864.66;5094531;28;20372;-59
2023/04/08 05:04:23;;;;;;;89.00;30.02;;;;;;;6.12;100.00;99866.94;5097004;28;20047;-61
2023/04/08 05:06:48;;;;;;;88.88;31.38;;;;;;;6.13;100.00;99873.06;5092442;28;20111;-58
2023/04/08 05:09:14;;;;;;;89.63;31.45;;;;;;;6.16;100.00;99875.31;5097494;28;20539;-59
2023/04/08 05:11:39;;;;;;;84.53;29.00;;;;;;;6.14;100.00;99875.53;5095619;28;20027;-61
2023/04/08 05:14:06;;;;;;;83.00;30.30;;;;;;;6.10;100.00;99879.59;5094556;28;20420;-58
2023/04/08 05:16:32;;;;;;;91.57;30.35;;;;;;;6.20;100.00;99879.25;5099063;28;20119;-61
2023/04/08 05:18:57;;;;;;;98.18;31.05;;;;;;;6.16;100.00;99878.81;5092370;28;20028;-60
2023/04/08 05:21:23;;;;;;;81.97;28.67;;;;;;;6.16;100.00;99878.81;5100087;28;20062;-59
2023/04/08 05:23:51;;;;;;;87.00;30.13;;;;;;;6.25;100.00;99882.94;5092231;28;20028;-59
2023/04/08 05:26:17;;;;;;;86.63;29.25;;;;;;;6.30;100.00;99885.03;5089195;28;20111;-59
2023/04/08 05:28:43;;;;;;;77.85;28.38;;;;;;;6.36;100.00;99878.06;5095410;28;20418;-59
2023/04/08 05:31:10;;;;;;;92.72;31.98;;;;;;;6.26;100.00;99887.28;5095195;28;20457;-59
2023/04/08 05:33:36;;;;;;;75.43;27.90;;;;;;;6.36;100.00;99892.19;5095643;28;20043;-59
2023/04/08 05:36:01;;;;;;;90.03;31.73;;;;;;;6.21;100.00;99886.19;5093345;28;20027;-59
2023/04/08 05:38:27;;;;;;;91.40;31.52;;;;;;;6.32;100.00;99887.50;5099890;28;20412;-60
2023/04/08 05:40:52;;;;;;;85.13;31.85;;;;;;;6.36;100.00;99889.53;5095740;28;20326;-59
2023/04/08 05:43:18;;;;;;;92.68;31.60;;;;;;;6.37;100.00;99896.53;5096473;28;20038;-59
2023/04/08 05:45:43;;;;;;;90.28;31.35;;;;;;;6.41;100.00;99896.94;5099175;28;20399;-59
2023/04/08 05:48:08;;;;;;;101.55;32.42;;;;;;;6.39;100.00;99890.97;5094029;28;20032;-59
2023/04/08 05:50:35;;;;;;;87.97;31.35;;;;;;;6.45;100.00;99899.00;5098775;28;20143;-59
2023/04/08 05:53:00;;;;;;;89.18;32.90;;;;;;;6.53;100.00;99905.19;5103268;27;20093;-59
2023/04/08 05:55:26;;;;;;;80.28;30.15;;;;;;;6.43;100.00;99900.22;5091934;28;20365;-60
2023/04/08 05:57:51;;;;;;;86.30;31.10;;;;;;;6.44;100.00;99901.84;5092883;28;20501;-59
2023/04/08 06:00:16;;;;;;;89.85;32.30;;;;;;;6.40;100.00;99909.44;5096020;28;20019;-60
2023/04/08 06:02:42;;;;;;;88.72;32.25;;;;;;;6.52;100.00;99909.69;5095793;28;20376;-59
2023/04/08 06:05:08;;;;;;;81.15;30.48;;;;;;;6.58;100.00;99906.22;5096676;28;20034;-59
2023/04/08 06:07:33;;;;;;;97.05;38.50;;;;;;;6.59;100.00;99907.03;5103629;28;20030;-59
2023/04/08 06:09:59;;;;;;;99.47;34.92;;;;;;;6.53;100.00;99911.31;5098486;28;20020;-59
2023/04/08 06:12:24;;;;;;;92.15;31.60;;;;;;;6.59;100.00;99907.03;5096481;28;20042;-59
2023/04/08 06:14:54;;;;;;;98.63;32.78;;;;;;;6.65;100.00;99908.91;5090341;28;20059;-59
2023/04/08 06:17:20;;;;;;;87.93;31.15;;;;;;;6.78;100.00;99914.28;5099044;28;20401;-60
2023/04/08 06:19:45;;;;;;;85.45;32.05;;;;;;;6.76;100.00;99916.31;5096495;28;20222;-60
2023/04/08 06:22:10;;;;;;;81.53;29.73;;;;;;;6.74;100.00;99914.88;5094363;28;20024;-60
2023/04/08 06:24:36;;;;;;;81.93;29.92;;;;;;;6.94;100.00;99920.25;5091921;28;20459;-60
2023/04/08 06:27:01;;;;;;;74.05;27.40;;;;;;;6.85;100.00;99919.63;5095918;28;20889;-59
2023/04/08 06:29:28;;;;;;;76.68;28.20;;;;;;;7.07;100.00;99921.09;5099332;28;20030;-60
2023/04/08 06:31:54;;;;;;;79.63;31.67;;;;;;;7.33;100.00;99922.97;5089032;28;20024;-59
2023/04/08 06:34:20;;;;;;;85.10;29.90;;;;;;;7.38;100.00;99925.03;5094511;28;20045;-60
2023/04/08 06:36:45;;;;;;;61.45;25.40;;;;;;;7.43;100.00;99932.41;5093288;28;20093;-60
2023/04/08 06:39:11;;;;;;;72.63;27.35;;;;;;;7.52;100.00;99926.69;5103070;28;20028;-60
2023/04/08 06:41:36;;;;;;;72.72;29.10;;;;;;;7.42;100.00;99926.28;5098975;28;20480;-60
2023/04/08 06:44:02;;;;;;;64.13;24.98;;;;;;;7.72;100.00;99929.34;5096871;28;20334;-60
2023/04/08 06:46:27;;;;;;;72.57;26.63;;;;;;;7.92;100.00;99933.84;5100276;28;20019;-59
2023/04/08 06:48:53;;;;;;;61.13;24.95;;;;;;;7.73;100.00;99930.97;5094146;28;20046;-59
2023/04/08 06:51:18;;;;;;;66.38;27.42;;;;;;;7.73;100.00;99932.81;5099878;28;20054;-59
2023/04/08 06:53:44;;;;;;;63.83;25.30;;;;;;;7.70;100.00;99933.25;5090336;28;20020;-60
2023/04/08 06:56:10;;;;;;;58.40;24.45;;;;;;;7.66;100.00;99932.00;5094992;28;20027;-59
2023/04/08 06:58:35;;;;;;;64.38;26.92;;;;;;;7.60;100.00;99939.00;5098367;28;20020;-60
2023/04/08 07:01:02;;;;;;;64.15;26.58;;;;;;;7.68;100.00;99937.97;5103884;28;20105;-61
2023/04/08 07:03:27;;;;;;;61.92;25.88;;;;;;;7.52;100.00;99945.34;5098277;28;20096;-58
2023/04/08 07:05:52;;;;;;;66.38;25.67;;;;;;;7.83;100.00;99943.91;5093746;28;20027;-58
2023/04/08 07:08:18;;;;;;;63.97;27.67;;;;;;;7.95;100.00;99942.25;5105639;28;20564;-58
2023/04/08 07:10:43;;;;;;;59.28;25.65;;;;;;;8.16;100.00;99948.34;5099646;27;20028;-58
2023/04/08 07:13:09;;;;;;;65.40;26.58;;;;;;;8.26;100.00;99948.75;5097651;28;20455;-58
2023/04/08 07:15:35;;;;;;;68.28;28.08;;;;;;;8.30;100.00;99966.00;5095215;28;20044;-60
2023/04/08 07:18:04;;;;;;;59.92;26.00;;;;;;;8.21;100.00;99959.25;5103230;28;20115;-58
2023/04/08 07:20:30;;;;;;;61.15;27.10;;;;;;;8.09;100.00;99963.59;5099373;28;20391;-58
2023/04/08 07:22:55;;;;;;;109.97;36.63;;;;;;;8.11;100.00;99967.69;5095414;28;20028;-60
2023/04/08 07:25:20;;;;;;;68.72;26.85;;;;;;;8.28;100.00;99972.59;5098044;28;20461;-60
2023/04/08 07:27:46;;;;;;;71.85;27.90;;;;;;;8.24;100.00;99968.69;5098957;28;20046;-60
2023/04/08 07:30:12;;;;;;;62.53;27.50;;;;;;;8.38;100.00;99968.44;5100241;28;20165;-60
2023/04/08 07:32:37;;;;;;;67.45;27.90;;;;;;;8.27;100.00;99971.78;5095768;28;20043;-60
2023/04/08 07:35:03;;;;;;;68.80;28.40;;;;;;;8.11;100.00;99970.38;5094909;28;20077;-60
2023/04/08 07:37:28;;;;;;;68.10;29.60;;;;;;;8.35;100.00;99968.88;5101397;28;20027;-60
2023/04/08 07:39:54;;;;;;;66.35;28.90;;;;;;;8.34;99.72;99975.25;5096525;28;20520;-60
2023/04/08 07:42:19;;;;;;;65.97;29.05;;;;;;;8.53;99.30;99975.41;5098407;28;20109;-59
2023/04/08 07:44:45;;;;;;;67.20;28.27;;;;;;;9.07;95.71;99980.31;5099109;27;20080;-59
2023/04/08 07:47:11;;;;;;;66.90;29.20;;;;;;;8.85;94.95;99979.00;5097177;28;20662;-60
2023/04/08 07:49:37;;;;;;;63.55;28.17;;;;;;;8.50;94.76;99986.53;5102434;28;20519;-60
2023/04/08 07:52:03;;;;;;;64.35;26.48;;;;;;;8.42;94.62;99984.91;5097001;28;20032;-59
2023/04/08 07:54:30;;;;;;;64.00;27.90;;;;;;;8.33;95.13;99986.13;5093993;28;20020;-60
2023/04/08 07:56:56;;;;;;;65.65;28.58;;;;;;;8.32;97.30;99985.31;5097770;28;20678;-60
2023/04/08 07:59:21;;;;;;;61.70;25.88;;;;;;;8.31;96.60;99989.03;5097628;28;20023;-60
2023/04/08 08:01:47;;;;;;;64.60;26.20;;;;;;;8.33;94.97;99992.28;5102666;28;20072;-60
2023/04/08 08:04:12;;;;;;;57.83;25.45;;;;;;;8.39;94.81;99991.50;5102483;27;20418;-61
2023/04/08 08:06:38;;;;;;;55.70;24.58;;;;;;;8.97;92.39;99987.19;5102448;28;20032;-59
2023/04/08 08:09:04;;;;;;;57.70;26.08;;;;;;;9.11;90.46;99993.25;5092603;28;20069;-60
2023/04/08 08:11:29;;;;;;;58.85;27.30;;;;;;;9.69;84.76;100001.94;5102271;28;20032;-60
2023/04/08 08:13:55;;;;;;;55.35;24.23;;;;;;;9.42;85.61;100000.50;5095186;28;20282;-60
2023/04/08 08:16:21;;;;;;;51.53;24.42;;;;;;;9.78;89.54;99999.00;5098892;28;20323;-60
2023/04/08 08:18:46;;;;;;;60.75;28.50;;;;;;;9.85;87.43;100000.56;5098317;28;20157;-60
2023/04/08 08:21:12;;;;;;;48.88;23.52;;;;;;;10.30;86.05;100002.25;5101827;28;20028;-60
2023/04/08 08:23:37;;;;;;;50.35;23.80;;;;;;;10.01;86.33;100001.06;5100099;28;20028;-60
2023/04/08 08:26:08;;;;;;;59.13;25.67;;;;;;;10.41;85.30;100000.69;5087455;28;20474;-60
2023/04/08 08:28:34;;;;;;;45.33;22.50;;;;;;;10.80;83.29;100004.81;5105081;28;20204;-60
2023/04/08 08:30:59;;;;;;;46.92;22.88;;;;;;;12.01;73.94;100002.06;5105201;28;20032;-60
2023/04/08 08:33:24;;;;;;;45.25;22.73;;;;;;;11.12;79.88;100005.44;5103783;28;20031;-60
2023/04/08 08:35:50;;;;;;;47.95;23.77;;;;;;;11.19;78.91;100005.34;5100819;28;20028;-60
2023/04/08 08:38:16;;;;;;;46.35;23.42;;;;;;;10.85;80.20;100010.31;5103078;28;20063;-60
2023/04/08 08:40:43;;;;;;;46.45;23.55;;;;;;;11.36;77.98;100011.72;5096083;28;20390;-60
2023/04/08 08:43:08;;;;;;;44.45;23.33;;;;;;;11.68;75.07;100005.25;5103433;28;20035;-60
2023/04/08 08:45:38;;;;;;;53.72;24.70;;;;;;;12.89;71.41;100010.97;5098296;28;20031;-61
2023/04/08 08:48:03;;;;;;;43.67;23.05;;;;;;;12.04;72.63;100010.47;5099822;28;20435;-60
2023/04/08 08:50:29;;;;;;;46.08;22.42;;;;;;;11.55;76.31;100008.94;5093811;28;20031;-60
2023/04/08 08:52:54;;;;;;;44.75;22.73;;;;;;;12.56;74.42;100017.81;5093966;28;20046;-60
2023/04/08 08:55:20;;;;;;;45.70;23.05;;;;;;;12.62;70.12;100018.75;5093528;28;20039;-60
2023/04/08 08:57:47;;;;;;;48.88;24.48;;;;;;;12.14;73.14;100023.31;5100439;28;20027;-60
2023/04/08 09:00:14;;;;;;;41.65;23.58;;;;;;;12.88;69.66;100022.75;5103307;28;20036;-60
2023/04/08 09:02:40;;;;;;;40.60;23.27;;;;;;;12.18;74.10;100024.50;5098576;27;20130;-60
2023/04/08 09:05:06;;;;;;;46.80;23.30;;;;;;;12.39;70.55;100030.34;5101040;28;20031;-60
2023/04/08 09:07:34;;;;;;;39.28;21.83;;;;;;;11.89;73.29;100025.41;5093964;28;20035;-60
2023/04/08 09:10:00;;;;;;;39.45;22.05;;;;;;;12.42;71.85;100037.94;5091308;28;20382;-60
2023/04/08 09:12:30;;;;;;;39.97;22.70;;;;;;;11.28;77.29;100035.34;5094578;28;20039;-60
2023/04/08 09:15:05;;;;;;;40.00;22.42;;;;;;;11.29;76.23;100037.81;5097163;28;20521;-60
2023/04/08 09:17:33;;;;;;;39.50;22.30;;;;;;;10.96;79.71;100038.25;5096974;28;20443;-60
2023/04/08 09:20:11;;;;;;;44.03;23.65;;;;;;;10.91;79.71;100041.59;5098188;28;20058;-60
2023/04/08 09:22:59;;;;;;;44.85;22.50;;;;;;;11.05;77.01;100049.47;5093095;28;20583;-60
2023/04/08 09:25:26;;;;;;;42.15;22.00;;;;;;;11.22;73.69;100039.78;5099691;28;20657;-60
2023/04/08 09:27:52;;;;;;;44.38;22.80;;;;;;;10.75;75.85;100042.19;5101114;28;20407;-60
2023/04/08 09:30:19;;;;;;;37.03;20.77;;;;;;;10.94;77.22;100049.19;5092022;28;20032;-59
2023/04/08 09:32:52;;;;;;;36.88;20.35;;;;;;;11.29;76.90;100045.88;5094286;28;20030;-60
2023/04/08 09:35:18;;;;;;;42.45;23.13;;;;;;;10.44;77.20;100052.00;5094536;28;20036;-59
2023/04/08 09:37:44;;;;;;;39.60;22.52;;;;;;;9.96;80.98;100041.91;5096755;28;20351;-59
2023/04/08 09:40:10;;;;;;;43.90;22.15;;;;;;;10.07;80.99;100048.41;5097572;28;20470;-59
2023/04/08 09:42:37;;;;;;;41.67;22.33;;;;;;;10.11;82.80;100045.06;5097906;28;20031;-59
2023/04/08 09:45:03;;;;;;;40.92;22.23;;;;;;;10.00;80.69;100044.97;5091219;28;20024;-59
2023/04/08 09:47:28;;;;;;;47.08;24.63;;;;;;;9.75;82.84;100043.09;5093899;28;20038;-59
2023/04/08 09:50:00;;;;;;;37.22;20.17;;;;;;;9.96;84.62;100044.59;5078129;28;20020;-59
2023/04/08 09:52:46;;;;;;;43.20;21.90;;;;;;;9.98;83.06;100047.03;5077721;28;20054;-58
2023/04/08 09:55:16;;;;;;;43.50;22.77;;;;;;;10.20;82.52;100055.50;5094325;28;20044;-59
2023/04/08 09:57:44;;;;;;;;;;;;;;;10.29;83.68;100057.72;5101556;28;20022;-59
2023/04/08 10:00:14;;;;;;;39.90;23.60;;;;;;;10.07;83.10;100054.56;5092283;28;19920;-59
2023/04/08 10:02:42;;;;;;;38.30;22.35;;;;;;;10.57;81.31;100057.22;5091643;28;20098;-59
2023/04/08 10:05:08;;;;;;;38.67;20.95;;;;;;;11.00;78.48;100050.97;5090984;28;20089;-59
2023/04/08 10:07:34;;;;;;;40.92;22.73;;;;;;;10.92;76.28;100059.31;5077353;28;20020;-60
2023/04/08 10:10:00;;;;;;;35.05;21.42;;;;;;;11.05;77.61;100057.53;5098820;28;20476;-59
2023/04/08 10:12:26;;;;;;;37.72;21.15;;;;;;;11.73;75.27;100057.22;5099482;28;20069;-59
2023/04/08 10:15:25;;;;;;;36.50;20.77;;;;;;;11.76;72.94;100053.28;5078405;28;20524;-59
2023/04/08 10:17:51;;;;;;;35.45;20.77;;;;;;;11.60;72.17;100046.66;5093925;28;20481;-59
2023/04/08 10:20:35;;;;;;;31.90;19.17;;;;;;;11.29;73.70;100053.91;5096822;28;20018;-59
2023/04/08 10:23:01;;;;;;;37.80;20.88;;;;;;;10.63;76.08;100066.25;5096291;28;20081;-59
2023/04/08 10:25:33;;;;;;;41.03;22.83;;;;;;;10.16;78.63;100055.13;5100187;28;20520;-59
2023/04/08 10:28:18;;;;;;;37.15;21.42;;;;;;;10.41;76.20;100063.19;5091863;28;20060;-59
2023/04/08 10:30:47;;;;;;;35.72;21.20;;;;;;;10.47;75.48;100062.28;5098463;28;20035;-59
2023/04/08 10:33:18;;;;;;;33.80;21.05;;;;;;;10.69;76.69;100056.50;5095074;28;20482;-59
2023/04/08 10:35:46;;;;;;;;;;;;;;;10.75;75.77;100052.91;5096789;28;20101;-59
2023/04/08 10:38:15;;;;;;;35.38;21.23;;;;;;;10.33;77.37;100050.03;5096761;28;20010;-59
2023/04/08 10:40:41;;;;;;;35.97;21.60;;;;;;;10.31;77.35;100058.31;5097403;28;20032;-59
2023/04/08 10:43:11;;;;;;;34.25;21.23;;;;;;;10.28;77.37;100055.25;5103582;28;20270;-59
2023/04/08 10:45:37;;;;;;;66.70;30.30;;;;;;;10.45;76.60;100061.69;5101126;28;20477;-60
2023/04/08 10:48:12;;;;;;;46.95;21.98;;;;;;;10.66;76.67;100057.78;5100499;28;20044;-59
2023/04/08 10:50:38;;;;;;;36.55;20.15;;;;;;;10.39;76.46;100059.91;5102942;28;20572;-59
2023/04/08 10:53:04;;;;;;;36.95;22.33;;;;;;;9.99;78.42;100051.38;5097252;28;20185;-59
2023/04/08 10:55:30;;;;;;;36.47;20.45;;;;;;;10.13;79.56;100056.41;5101051;28;20023;-59
2023/04/08 10:58:03;;;;;;;33.10;18.27;;;;;;;10.61;78.39;100048.75;5097425;28;20046;-59
2023/04/08 11:00:38;;;;;;;35.58;19.95;;;;;;;10.29;75.71;100054.22;5102308;28;20027;-58
2023/04/08 11:03:08;;;;;;;39.55;21.63;;;;;;;10.41;77.88;100060.50;5095984;28;20064;-59
2023/04/08 11:05:35;;;;;;;38.15;20.52;;;;;;;10.59;76.50;100059.69;5102693;28;20104;-59
2023/04/08 11:08:01;;;;;;;34.33;21.25;;;;;;;10.84;75.67;100054.28;5103575;28;20128;-59
2023/04/08 11:10:27;;;;;;;31.80;20.20;;;;;;;10.97;75.20;100045.25;5100149;28;20078;-59
2023/04/08 11:12:53;;;;;;;32.30;20.63;;;;;;;11.24;74.30;100040.38;5101429;28;20092;-59
2023/04/08 11:15:19;;;;;;;33.80;20.50;;;;;;;10.87;73.98;100045.78;5096158;28;20040;-59